sensor_id;sensor_type;location;lat;lon;timestamp;P1;durP1;ratioP1;P2;durP2;ratioP2
21868;SDS011;11099;41.564;23.296;2023-05-20T00:03:16;12.43;;;7.20;;
21868;SDS011;11099;41.564;23.296;2023-05-20T00:09:05;12.48;;;7.30;;
21868;SDS011;11099;41.564;23.296;2023-05-20T00:11:31;8.73;;;6.85;;
21868;SDS011;11099;41.564;23.296;2023-05-20T00:13:57;10.82;;;7.78;;
21868;SDS011;11099;41.564;23.296;2023-05-20T00:16:51;8.90;;;7.80;;
21868;SDS011;11099;41.564;23.296;2023-05-20T00:19:44;12.23;;;7.15;;
21868;SDS011;11099;41.564;23.296;2023-05-20T00:22:10;7.47;;;6.78;;
21868;SDS011;11099;41.564;23.296;2023-05-20T00:24:35;7.88;;;6.75;;
21868;SDS011;11099;41.564;23.296;2023-05-20T00:27:01;6.88;;;6.18;;
21868;SDS011;11099;41.564;23.296;2023-05-20T00:29:26;8.95;;;7.45;;
21868;SDS011;11099;41.564;23.296;2023-05-20T00:31:52;7.63;;;6.93;;
21868;SDS011;11099;41.564;23.296;2023-05-20T00:34:19;7.03;;;6.32;;
21868;SDS011;11099;41.564;23.296;2023-05-20T00:36:44;8.05;;;7.25;;
21868;SDS011;11099;41.564;23.296;2023-05-20T00:39:10;9.35;;;6.70;;
21868;SDS011;11099;41.564;23.296;2023-05-20T00:41:36;6.93;;;6.25;;
21868;SDS011;11099;41.564;23.296;2023-05-20T00:44:03;7.28;;;6.57;;
21868;SDS011;11099;41.564;23.296;2023-05-20T00:46:28;12.88;;;6.95;;
21868;SDS011;11099;41.564;23.296;2023-05-20T00:48:55;7.88;;;7.03;;
21868;SDS011;11099;41.564;23.296;2023-05-20T00:51:31;7.80;;;6.97;;
21868;SDS011;11099;41.564;23.296;2023-05-20T00:54:19;7.63;;;6.80;;
21868;SDS011;11099;41.564;23.296;2023-05-20T00:56:48;7.65;;;6.85;;
21868;SDS011;11099;41.564;23.296;2023-05-20T00:59:40;7.88;;;6.70;;
21868;SDS011;11099;41.564;23.296;2023-05-20T01:02:08;9.93;;;6.75;;
21868;SDS011;11099;41.564;23.296;2023-05-20T01:04:38;9.05;;;6.85;;
21868;SDS011;11099;41.564;23.296;2023-05-20T01:07:05;7.72;;;6.82;;
21868;SDS011;11099;41.564;23.296;2023-05-20T01:09:42;9.38;;;7.05;;
21868;SDS011;11099;41.564;23.296;2023-05-20T01:12:38;8.20;;;6.57;;
21868;SDS011;11099;41.564;23.296;2023-05-20T01:15:09;7.20;;;6.50;;
21868;SDS011;11099;41.564;23.296;2023-05-20T01:18:02;10.32;;;7.22;;
21868;SDS011;11099;41.564;23.296;2023-05-20T01:20:32;7.75;;;6.80;;
21868;SDS011;11099;41.564;23.296;2023-05-20T01:23:00;10.93;;;6.70;;
21868;SDS011;11099;41.564;23.296;2023-05-20T01:25:25;10.18;;;7.00;;
21868;SDS011;11099;41.564;23.296;2023-05-20T01:27:53;7.68;;;6.80;;
21868;SDS011;11099;41.564;23.296;2023-05-20T01:30:25;7.75;;;7.00;;
21868;SDS011;11099;41.564;23.296;2023-05-20T01:33:13;8.80;;;7.28;;
21868;SDS011;11099;41.564;23.296;2023-05-20T01:35:40;10.43;;;6.75;;
21868;SDS011;11099;41.564;23.296;2023-05-20T01:38:12;7.78;;;6.97;;
21868;SDS011;11099;41.564;23.296;2023-05-20T01:41:35;7.32;;;6.72;;
21868;SDS011;11099;41.564;23.296;2023-05-20T01:44:02;8.02;;;6.50;;
21868;SDS011;11099;41.564;23.296;2023-05-20T01:46:31;7.65;;;6.95;;
21868;SDS011;11099;41.564;23.296;2023-05-20T01:48:58;8.13;;;6.32;;
21868;SDS011;11099;41.564;23.296;2023-05-20T01:51:24;7.63;;;6.93;;
21868;SDS011;11099;41.564;23.296;2023-05-20T01:53:49;9.25;;;6.72;;
21868;SDS011;11099;41.564;23.296;2023-05-20T01:59:57;9.77;;;6.40;;
21868;SDS011;11099;41.564;23.296;2023-05-20T02:02:22;9.43;;;6.43;;
21868;SDS011;11099;41.564;23.296;2023-05-20T02:04:49;7.47;;;6.22;;
21868;SDS011;11099;41.564;23.296;2023-05-20T02:07:17;7.30;;;6.60;;
21868;SDS011;11099;41.564;23.296;2023-05-20T02:09:43;7.25;;;6.55;;
21868;SDS011;11099;41.564;23.296;2023-05-20T02:12:09;7.00;;;6.38;;
21868;SDS011;11099;41.564;23.296;2023-05-20T02:14:40;11.93;;;7.40;;
21868;SDS011;11099;41.564;23.296;2023-05-20T02:17:21;10.20;;;8.00;;
21868;SDS011;11099;41.564;23.296;2023-05-20T02:19:46;11.48;;;8.40;;
21868;SDS011;11099;41.564;23.296;2023-05-20T02:22:18;10.73;;;8.07;;
21868;SDS011;11099;41.564;23.296;2023-05-20T02:24:44;8.95;;;7.95;;
21868;SDS011;11099;41.564;23.296;2023-05-20T02:33:24;10.38;;;7.63;;
21868;SDS011;11099;41.564;23.296;2023-05-20T02:35:53;10.05;;;8.77;;
21868;SDS011;11099;41.564;23.296;2023-05-20T02:38:18;15.77;;;7.90;;
21868;SDS011;11099;41.564;23.296;2023-05-20T02:40:44;8.55;;;7.75;;
21868;SDS011;11099;41.564;23.296;2023-05-20T02:43:10;9.63;;;8.25;;
21868;SDS011;11099;41.564;23.296;2023-05-20T02:45:35;8.57;;;7.65;;
21868;SDS011;11099;41.564;23.296;2023-05-20T02:48:05;14.02;;;8.52;;
21868;SDS011;11099;41.564;23.296;2023-05-20T02:50:32;12.05;;;8.27;;
21868;SDS011;11099;41.564;23.296;2023-05-20T02:52:58;8.48;;;7.57;;
21868;SDS011;11099;41.564;23.296;2023-05-20T02:55:23;11.85;;;7.82;;
21868;SDS011;11099;41.564;23.296;2023-05-20T02:57:49;8.80;;;7.65;;
21868;SDS011;11099;41.564;23.296;2023-05-20T03:00:15;8.85;;;7.85;;
21868;SDS011;11099;41.564;23.296;2023-05-20T03:02:40;10.38;;;7.88;;
21868;SDS011;11099;41.564;23.296;2023-05-20T03:05:06;11.73;;;8.07;;
21868;SDS011;11099;41.564;23.296;2023-05-20T03:07:33;8.82;;;7.97;;
21868;SDS011;11099;41.564;23.296;2023-05-20T03:10:00;10.65;;;8.60;;
21868;SDS011;11099;41.564;23.296;2023-05-20T03:12:27;10.80;;;8.30;;
21868;SDS011;11099;41.564;23.296;2023-05-20T03:14:52;13.75;;;8.73;;
21868;SDS011;11099;41.564;23.296;2023-05-20T03:17:21;11.27;;;8.68;;
21868;SDS011;11099;41.564;23.296;2023-05-20T03:20:22;11.15;;;9.20;;
21868;SDS011;11099;41.564;23.296;2023-05-20T03:22:48;10.38;;;8.50;;
21868;SDS011;11099;41.564;23.296;2023-05-20T03:25:13;15.73;;;9.05;;
21868;SDS011;11099;41.564;23.296;2023-05-20T03:27:39;11.82;;;9.00;;
21868;SDS011;11099;41.564;23.296;2023-05-20T03:30:07;11.73;;;8.75;;
21868;SDS011;11099;41.564;23.296;2023-05-20T03:32:34;10.02;;;8.82;;
21868;SDS011;11099;41.564;23.296;2023-05-20T03:35:01;11.43;;;8.73;;
21868;SDS011;11099;41.564;23.296;2023-05-20T03:37:27;12.95;;;9.15;;
21868;SDS011;11099;41.564;23.296;2023-05-20T03:39:58;11.45;;;9.00;;
21868;SDS011;11099;41.564;23.296;2023-05-20T03:42:23;12.85;;;8.82;;
21868;SDS011;11099;41.564;23.296;2023-05-20T03:44:49;11.45;;;8.88;;
21868;SDS011;11099;41.564;23.296;2023-05-20T03:47:15;9.15;;;8.15;;
21868;SDS011;11099;41.564;23.296;2023-05-20T03:49:43;10.50;;;8.23;;
21868;SDS011;11099;41.564;23.296;2023-05-20T03:52:10;10.73;;;7.25;;
21868;SDS011;11099;41.564;23.296;2023-05-20T04:09:59;10.20;;;6.90;;
21868;SDS011;11099;41.564;23.296;2023-05-20T04:12:32;8.73;;;6.55;;
21868;SDS011;11099;41.564;23.296;2023-05-20T04:15:13;10.88;;;7.32;;
21868;SDS011;11099;41.564;23.296;2023-05-20T04:17:40;11.00;;;7.55;;
21868;SDS011;11099;41.564;23.296;2023-05-20T04:20:08;7.63;;;6.93;;
21868;SDS011;11099;41.564;23.296;2023-05-20T04:22:35;9.00;;;7.07;;
21868;SDS011;11099;41.564;23.296;2023-05-20T04:25:02;13.30;;;7.25;;
21868;SDS011;11099;41.564;23.296;2023-05-20T04:27:30;12.43;;;7.93;;
21868;SDS011;11099;41.564;23.296;2023-05-20T04:33:02;7.72;;;6.85;;
21868;SDS011;11099;41.564;23.296;2023-05-20T04:35:28;7.53;;;6.72;;
21868;SDS011;11099;41.564;23.296;2023-05-20T04:37:53;8.25;;;6.90;;
21868;SDS011;11099;41.564;23.296;2023-05-20T04:40:19;8.90;;;7.70;;
21868;SDS011;11099;41.564;23.296;2023-05-20T04:42:45;8.50;;;7.30;;
21868;SDS011;11099;41.564;23.296;2023-05-20T04:45:22;10.18;;;7.25;;
21868;SDS011;11099;41.564;23.296;2023-05-20T04:47:57;14.88;;;7.00;;
21868;SDS011;11099;41.564;23.296;2023-05-20T04:50:23;9.27;;;8.18;;
21868;SDS011;11099;41.564;23.296;2023-05-20T04:52:49;8.75;;;7.93;;
21868;SDS011;11099;41.564;23.296;2023-05-20T04:55:15;7.85;;;6.95;;
21868;SDS011;11099;41.564;23.296;2023-05-20T04:57:41;12.65;;;8.43;;
21868;SDS011;11099;41.564;23.296;2023-05-20T05:00:08;11.32;;;7.35;;
21868;SDS011;11099;41.564;23.296;2023-05-20T05:02:34;9.25;;;7.00;;
21868;SDS011;11099;41.564;23.296;2023-05-20T05:05:00;20.85;;;7.13;;
21868;SDS011;11099;41.564;23.296;2023-05-20T05:07:26;10.55;;;7.47;;
21868;SDS011;11099;41.564;23.296;2023-05-20T05:09:52;21.65;;;7.90;;
21868;SDS011;11099;41.564;23.296;2023-05-20T05:12:17;9.02;;;7.25;;
21868;SDS011;11099;41.564;23.296;2023-05-20T05:14:43;9.05;;;6.97;;
21868;SDS011;11099;41.564;23.296;2023-05-20T05:17:08;9.40;;;7.10;;
21868;SDS011;11099;41.564;23.296;2023-05-20T05:19:34;7.88;;;7.10;;
21868;SDS011;11099;41.564;23.296;2023-05-20T05:22:00;10.75;;;7.95;;
21868;SDS011;11099;41.564;23.296;2023-05-20T05:24:27;10.88;;;7.28;;
21868;SDS011;11099;41.564;23.296;2023-05-20T05:26:54;8.98;;;7.22;;
21868;SDS011;11099;41.564;23.296;2023-05-20T05:29:23;12.07;;;8.18;;
21868;SDS011;11099;41.564;23.296;2023-05-20T05:31:56;8.40;;;7.40;;
21868;SDS011;11099;41.564;23.296;2023-05-20T05:35:19;11.77;;;7.30;;
21868;SDS011;11099;41.564;23.296;2023-05-20T05:37:45;12.75;;;7.85;;
21868;SDS011;11099;41.564;23.296;2023-05-20T05:40:11;12.27;;;7.55;;
21868;SDS011;11099;41.564;23.296;2023-05-20T05:42:37;12.23;;;8.20;;
21868;SDS011;11099;41.564;23.296;2023-05-20T05:45:04;11.25;;;7.50;;
21868;SDS011;11099;41.564;23.296;2023-05-20T05:47:30;8.77;;;7.40;;
21868;SDS011;11099;41.564;23.296;2023-05-20T05:49:56;10.23;;;7.50;;
21868;SDS011;11099;41.564;23.296;2023-05-20T05:52:29;8.70;;;7.10;;
21868;SDS011;11099;41.564;23.296;2023-05-20T05:54:55;9.75;;;7.82;;
21868;SDS011;11099;41.564;23.296;2023-05-20T05:57:20;14.18;;;8.15;;
21868;SDS011;11099;41.564;23.296;2023-05-20T05:59:46;9.10;;;7.70;;
21868;SDS011;11099;41.564;23.296;2023-05-20T06:02:12;10.88;;;8.23;;
21868;SDS011;11099;41.564;23.296;2023-05-20T06:04:38;10.32;;;7.68;;
21868;SDS011;11099;41.564;23.296;2023-05-20T06:07:04;12.60;;;8.27;;
21868;SDS011;11099;41.564;23.296;2023-05-20T06:09:30;10.23;;;8.52;;
21868;SDS011;11099;41.564;23.296;2023-05-20T06:11:55;10.52;;;8.20;;
21868;SDS011;11099;41.564;23.296;2023-05-20T06:14:22;13.95;;;7.40;;
21868;SDS011;11099;41.564;23.296;2023-05-20T06:16:48;12.45;;;7.45;;
21868;SDS011;11099;41.564;23.296;2023-05-20T06:19:14;8.15;;;7.18;;
21868;SDS011;11099;41.564;23.296;2023-05-20T06:21:39;11.85;;;7.85;;
21868;SDS011;11099;41.564;23.296;2023-05-20T06:24:05;11.00;;;7.50;;
21868;SDS011;11099;41.564;23.296;2023-05-20T06:26:31;8.68;;;7.57;;
21868;SDS011;11099;41.564;23.296;2023-05-20T06:28:58;9.07;;;7.43;;
21868;SDS011;11099;41.564;23.296;2023-05-20T06:31:24;12.20;;;8.20;;
21868;SDS011;11099;41.564;23.296;2023-05-20T06:33:50;9.30;;;6.43;;
21868;SDS011;11099;41.564;23.296;2023-05-20T06:36:16;12.45;;;6.95;;
21868;SDS011;11099;41.564;23.296;2023-05-20T06:38:41;11.35;;;7.32;;
21868;SDS011;11099;41.564;23.296;2023-05-20T06:41:07;8.30;;;7.25;;
21868;SDS011;11099;41.564;23.296;2023-05-20T06:43:32;7.78;;;7.00;;
21868;SDS011;11099;41.564;23.296;2023-05-20T06:45:58;9.15;;;6.95;;
21868;SDS011;11099;41.564;23.296;2023-05-20T06:48:24;8.65;;;7.53;;
21868;SDS011;11099;41.564;23.296;2023-05-20T06:50:49;8.18;;;7.10;;
21868;SDS011;11099;41.564;23.296;2023-05-20T06:53:15;8.90;;;6.97;;
21868;SDS011;11099;41.564;23.296;2023-05-20T06:55:41;8.23;;;7.15;;
21868;SDS011;11099;41.564;23.296;2023-05-20T06:58:06;8.02;;;7.22;;
21868;SDS011;11099;41.564;23.296;2023-05-20T07:00:32;14.98;;;7.78;;
21868;SDS011;11099;41.564;23.296;2023-05-20T07:02:58;11.68;;;7.70;;
21868;SDS011;11099;41.564;23.296;2023-05-20T07:05:23;8.27;;;7.20;;
21868;SDS011;11099;41.564;23.296;2023-05-20T07:07:49;13.50;;;7.90;;
21868;SDS011;11099;41.564;23.296;2023-05-20T07:10:15;8.00;;;7.20;;
21868;SDS011;11099;41.564;23.296;2023-05-20T07:12:40;10.05;;;7.20;;
21868;SDS011;11099;41.564;23.296;2023-05-20T07:15:06;7.40;;;6.65;;
21868;SDS011;11099;41.564;23.296;2023-05-20T07:17:32;11.23;;;7.43;;
21868;SDS011;11099;41.564;23.296;2023-05-20T07:19:58;8.82;;;7.03;;
21868;SDS011;11099;41.564;23.296;2023-05-20T07:22:23;10.35;;;6.72;;
21868;SDS011;11099;41.564;23.296;2023-05-20T07:24:49;8.23;;;7.07;;
21868;SDS011;11099;41.564;23.296;2023-05-20T07:27:14;9.15;;;7.70;;
21868;SDS011;11099;41.564;23.296;2023-05-20T07:29:42;8.52;;;7.40;;
21868;SDS011;11099;41.564;23.296;2023-05-20T07:32:08;8.43;;;7.07;;
21868;SDS011;11099;41.564;23.296;2023-05-20T07:34:34;8.20;;;7.18;;
21868;SDS011;11099;41.564;23.296;2023-05-20T07:37:00;9.73;;;6.93;;
21868;SDS011;11099;41.564;23.296;2023-05-20T07:39:25;9.70;;;7.72;;
21868;SDS011;11099;41.564;23.296;2023-05-20T07:41:51;7.78;;;7.00;;
21868;SDS011;11099;41.564;23.296;2023-05-20T07:44:17;11.65;;;7.25;;
21868;SDS011;11099;41.564;23.296;2023-05-20T07:46:48;14.52;;;8.05;;
21868;SDS011;11099;41.564;23.296;2023-05-20T07:49:13;12.98;;;8.05;;
21868;SDS011;11099;41.564;23.296;2023-05-20T07:51:39;11.80;;;7.30;;
21868;SDS011;11099;41.564;23.296;2023-05-20T07:54:05;9.30;;;8.20;;
21868;SDS011;11099;41.564;23.296;2023-05-20T07:56:31;10.40;;;7.90;;
21868;SDS011;11099;41.564;23.296;2023-05-20T07:58:57;14.07;;;9.27;;
21868;SDS011;11099;41.564;23.296;2023-05-20T08:01:24;11.40;;;8.82;;
21868;SDS011;11099;41.564;23.296;2023-05-20T08:03:50;11.90;;;8.85;;
21868;SDS011;11099;41.564;23.296;2023-05-20T08:06:16;10.05;;;8.32;;
21868;SDS011;11099;41.564;23.296;2023-05-20T08:08:42;12.70;;;8.88;;
21868;SDS011;11099;41.564;23.296;2023-05-20T08:11:08;12.20;;;8.30;;
21868;SDS011;11099;41.564;23.296;2023-05-20T08:13:34;11.07;;;8.20;;
21868;SDS011;11099;41.564;23.296;2023-05-20T08:16:00;10.32;;;8.18;;
21868;SDS011;11099;41.564;23.296;2023-05-20T08:18:30;8.77;;;7.72;;
21868;SDS011;11099;41.564;23.296;2023-05-20T08:21:00;9.90;;;8.05;;
21868;SDS011;11099;41.564;23.296;2023-05-20T08:23:26;10.68;;;8.27;;
21868;SDS011;11099;41.564;23.296;2023-05-20T08:25:51;10.25;;;7.93;;
21868;SDS011;11099;41.564;23.296;2023-05-20T08:28:17;10.80;;;8.20;;
21868;SDS011;11099;41.564;23.296;2023-05-20T08:30:43;12.45;;;8.23;;
21868;SDS011;11099;41.564;23.296;2023-05-20T08:33:09;11.77;;;8.55;;
21868;SDS011;11099;41.564;23.296;2023-05-20T08:35:35;11.52;;;8.85;;
21868;SDS011;11099;41.564;23.296;2023-05-20T08:38:03;11.07;;;8.20;;
21868;SDS011;11099;41.564;23.296;2023-05-20T08:40:29;11.48;;;8.10;;
21868;SDS011;11099;41.564;23.296;2023-05-20T08:42:55;9.55;;;8.50;;
21868;SDS011;11099;41.564;23.296;2023-05-20T08:45:23;9.40;;;8.27;;
21868;SDS011;11099;41.564;23.296;2023-05-20T08:47:52;11.98;;;7.90;;
21868;SDS011;11099;41.564;23.296;2023-05-20T08:50:18;8.15;;;7.35;;
21868;SDS011;11099;41.564;23.296;2023-05-20T08:52:45;13.35;;;8.13;;
21868;SDS011;11099;41.564;23.296;2023-05-20T08:55:15;15.57;;;8.30;;
21868;SDS011;11099;41.564;23.296;2023-05-20T08:57:47;10.30;;;7.43;;
21868;SDS011;11099;41.564;23.296;2023-05-20T09:00:14;9.70;;;7.45;;
21868;SDS011;11099;41.564;23.296;2023-05-20T09:02:41;15.23;;;8.10;;
21868;SDS011;11099;41.564;23.296;2023-05-20T09:05:09;10.82;;;7.53;;
21868;SDS011;11099;41.564;23.296;2023-05-20T09:07:35;12.38;;;7.10;;
21868;SDS011;11099;41.564;23.296;2023-05-20T09:10:01;8.27;;;7.38;;
21868;SDS011;11099;41.564;23.296;2023-05-20T09:12:27;9.13;;;6.60;;
21868;SDS011;11099;41.564;23.296;2023-05-20T09:14:52;11.90;;;6.60;;
21868;SDS011;11099;41.564;23.296;2023-05-20T09:17:19;10.82;;;7.50;;
21868;SDS011;11099;41.564;23.296;2023-05-20T09:19:49;7.18;;;6.45;;
21868;SDS011;11099;41.564;23.296;2023-05-20T09:22:22;8.68;;;6.97;;
21868;SDS011;11099;41.564;23.296;2023-05-20T09:24:51;7.43;;;6.55;;
21868;SDS011;11099;41.564;23.296;2023-05-20T09:27:18;10.93;;;6.60;;
21868;SDS011;11099;41.564;23.296;2023-05-20T09:29:46;10.88;;;7.05;;
21868;SDS011;11099;41.564;23.296;2023-05-20T09:32:12;9.50;;;7.25;;
21868;SDS011;11099;41.564;23.296;2023-05-20T09:34:38;8.88;;;7.22;;
21868;SDS011;11099;41.564;23.296;2023-05-20T09:37:04;8.02;;;6.75;;
21868;SDS011;11099;41.564;23.296;2023-05-20T09:39:33;11.45;;;7.05;;
21868;SDS011;11099;41.564;23.296;2023-05-20T09:42:07;7.65;;;6.90;;
21868;SDS011;11099;41.564;23.296;2023-05-20T09:44:42;11.15;;;7.65;;
21868;SDS011;11099;41.564;23.296;2023-05-20T09:47:09;10.38;;;6.93;;
21868;SDS011;11099;41.564;23.296;2023-05-20T09:49:35;12.73;;;7.60;;
21868;SDS011;11099;41.564;23.296;2023-05-20T09:52:03;10.77;;;6.80;;
21868;SDS011;11099;41.564;23.296;2023-05-20T09:54:29;12.63;;;7.45;;
21868;SDS011;11099;41.564;23.296;2023-05-20T09:56:57;13.00;;;8.25;;
21868;SDS011;11099;41.564;23.296;2023-05-20T09:59:24;10.87;;;8.97;;
21868;SDS011;11099;41.564;23.296;2023-05-20T10:01:51;12.95;;;8.48;;
21868;SDS011;11099;41.564;23.296;2023-05-20T10:04:17;9.85;;;8.43;;
21868;SDS011;11099;41.564;23.296;2023-05-20T10:20:47;14.98;;;8.52;;
21868;SDS011;11099;41.564;23.296;2023-05-20T10:23:23;12.93;;;8.68;;
21868;SDS011;11099;41.564;23.296;2023-05-20T10:25:53;8.82;;;7.93;;
21868;SDS011;11099;41.564;23.296;2023-05-20T10:28:35;10.45;;;8.30;;
21868;SDS011;11099;41.564;23.296;2023-05-20T10:31:02;9.30;;;7.88;;
21868;SDS011;11099;41.564;23.296;2023-05-20T10:33:42;10.25;;;8.10;;
21868;SDS011;11099;41.564;23.296;2023-05-20T10:36:20;14.18;;;8.18;;
21868;SDS011;11099;41.564;23.296;2023-05-20T10:38:56;8.52;;;7.32;;
21868;SDS011;11099;41.564;23.296;2023-05-20T10:41:26;8.95;;;8.02;;
21868;SDS011;11099;41.564;23.296;2023-05-20T10:44:03;11.40;;;7.15;;
21868;SDS011;11099;41.564;23.296;2023-05-20T10:46:30;9.95;;;8.32;;
21868;SDS011;11099;41.564;23.296;2023-05-20T10:48:56;8.85;;;7.45;;
21868;SDS011;11099;41.564;23.296;2023-05-20T10:51:22;12.82;;;9.85;;
21868;SDS011;11099;41.564;23.296;2023-05-20T10:53:53;11.65;;;8.10;;
21868;SDS011;11099;41.564;23.296;2023-05-20T10:56:21;11.32;;;7.75;;
21868;SDS011;11099;41.564;23.296;2023-05-20T10:58:48;8.07;;;7.28;;
21868;SDS011;11099;41.564;23.296;2023-05-20T11:01:15;8.55;;;6.55;;
21868;SDS011;11099;41.564;23.296;2023-05-20T11:03:43;8.88;;;5.97;;
21868;SDS011;11099;41.564;23.296;2023-05-20T11:06:13;7.28;;;6.03;;
21868;SDS011;11099;41.564;23.296;2023-05-20T11:08:39;7.57;;;5.70;;
21868;SDS011;11099;41.564;23.296;2023-05-20T11:11:05;10.63;;;5.93;;
21868;SDS011;11099;41.564;23.296;2023-05-20T11:13:31;6.65;;;5.85;;
21868;SDS011;11099;41.564;23.296;2023-05-20T11:15:56;10.25;;;6.20;;
21868;SDS011;11099;41.564;23.296;2023-05-20T11:18:28;7.03;;;6.38;;
21868;SDS011;11099;41.564;23.296;2023-05-20T11:20:56;7.40;;;5.82;;
21868;SDS011;11099;41.564;23.296;2023-05-20T11:23:22;10.50;;;5.53;;
21868;SDS011;11099;41.564;23.296;2023-05-20T11:25:49;10.48;;;5.80;;
21868;SDS011;11099;41.564;23.296;2023-05-20T11:28:16;7.88;;;6.55;;
21868;SDS011;11099;41.564;23.296;2023-05-20T11:30:44;9.02;;;6.20;;
21868;SDS011;11099;41.564;23.296;2023-05-20T11:33:13;9.43;;;5.90;;
21868;SDS011;11099;41.564;23.296;2023-05-20T11:35:44;7.07;;;6.38;;
21868;SDS011;11099;41.564;23.296;2023-05-20T11:38:11;10.63;;;6.35;;
21868;SDS011;11099;41.564;23.296;2023-05-20T11:40:37;8.30;;;6.10;;
21868;SDS011;11099;41.564;23.296;2023-05-20T11:43:09;6.38;;;5.78;;
21868;SDS011;11099;41.564;23.296;2023-05-20T11:45:40;8.57;;;5.63;;
21868;SDS011;11099;41.564;23.296;2023-05-20T11:48:06;6.95;;;5.82;;
21868;SDS011;11099;41.564;23.296;2023-05-20T11:50:37;6.57;;;5.75;;
21868;SDS011;11099;41.564;23.296;2023-05-20T11:53:05;7.53;;;5.82;;
21868;SDS011;11099;41.564;23.296;2023-05-20T11:55:32;7.13;;;5.85;;
21868;SDS011;11099;41.564;23.296;2023-05-20T11:57:59;6.65;;;5.82;;
21868;SDS011;11099;41.564;23.296;2023-05-20T12:00:26;6.28;;;5.63;;
21868;SDS011;11099;41.564;23.296;2023-05-20T12:02:52;7.88;;;5.30;;
21868;SDS011;11099;41.564;23.296;2023-05-20T12:05:17;7.88;;;5.13;;
21868;SDS011;11099;41.564;23.296;2023-05-20T12:07:43;6.22;;;5.25;;
21868;SDS011;11099;41.564;23.296;2023-05-20T12:10:09;9.68;;;5.47;;
21868;SDS011;11099;41.564;23.296;2023-05-20T12:12:35;12.50;;;5.50;;
21868;SDS011;11099;41.564;23.296;2023-05-20T12:15:02;9.52;;;5.80;;
21868;SDS011;11099;41.564;23.296;2023-05-20T12:17:28;6.50;;;5.63;;
21868;SDS011;11099;41.564;23.296;2023-05-20T12:19:54;8.32;;;5.30;;
21868;SDS011;11099;41.564;23.296;2023-05-20T12:22:19;5.70;;;4.70;;
21868;SDS011;11099;41.564;23.296;2023-05-20T12:24:45;4.68;;;4.28;;
21868;SDS011;11099;41.564;23.296;2023-05-20T12:27:10;7.80;;;4.88;;
21868;SDS011;11099;41.564;23.296;2023-05-20T12:29:36;5.43;;;4.93;;
21868;SDS011;11099;41.564;23.296;2023-05-20T12:32:02;7.25;;;4.63;;
21868;SDS011;11099;41.564;23.296;2023-05-20T12:34:27;5.00;;;4.50;;
21868;SDS011;11099;41.564;23.296;2023-05-20T12:36:54;5.35;;;4.07;;
21868;SDS011;11099;41.564;23.296;2023-05-20T12:39:19;4.40;;;4.00;;
21868;SDS011;11099;41.564;23.296;2023-05-20T12:41:45;6.07;;;4.28;;
21868;SDS011;11099;41.564;23.296;2023-05-20T12:44:10;8.60;;;4.55;;
21868;SDS011;11099;41.564;23.296;2023-05-20T12:46:36;4.47;;;4.15;;
21868;SDS011;11099;41.564;23.296;2023-05-20T12:49:02;6.50;;;4.05;;
21868;SDS011;11099;41.564;23.296;2023-05-20T12:51:28;5.45;;;4.78;;
21868;SDS011;11099;41.564;23.296;2023-05-20T12:53:53;5.80;;;4.70;;
21868;SDS011;11099;41.564;23.296;2023-05-20T12:56:19;5.53;;;4.63;;
21868;SDS011;11099;41.564;23.296;2023-05-20T12:58:45;7.72;;;6.00;;
21868;SDS011;11099;41.564;23.296;2023-05-20T13:01:10;15.18;;;8.32;;
21868;SDS011;11099;41.564;23.296;2023-05-20T13:03:36;6.18;;;5.18;;
21868;SDS011;11099;41.564;23.296;2023-05-20T13:06:02;7.20;;;4.53;;
21868;SDS011;11099;41.564;23.296;2023-05-20T13:08:28;5.32;;;3.90;;
21868;SDS011;11099;41.564;23.296;2023-05-20T13:10:54;4.95;;;4.30;;
21868;SDS011;11099;41.564;23.296;2023-05-20T13:13:19;5.72;;;4.20;;
21868;SDS011;11099;41.564;23.296;2023-05-20T13:15:49;6.60;;;4.20;;
21868;SDS011;11099;41.564;23.296;2023-05-20T13:18:15;5.47;;;4.30;;
21868;SDS011;11099;41.564;23.296;2023-05-20T13:20:44;6.32;;;4.20;;
21868;SDS011;11099;41.564;23.296;2023-05-20T13:23:10;5.75;;;4.38;;
21868;SDS011;11099;41.564;23.296;2023-05-20T13:25:36;5.10;;;4.68;;
21868;SDS011;11099;41.564;23.296;2023-05-20T13:28:02;5.22;;;4.38;;
21868;SDS011;11099;41.564;23.296;2023-05-20T13:30:28;4.72;;;4.28;;
21868;SDS011;11099;41.564;23.296;2023-05-20T13:32:54;5.43;;;4.53;;
21868;SDS011;11099;41.564;23.296;2023-05-20T13:35:20;5.28;;;4.57;;
21868;SDS011;11099;41.564;23.296;2023-05-20T13:37:45;5.78;;;4.70;;
21868;SDS011;11099;41.564;23.296;2023-05-20T13:40:11;5.95;;;5.32;;
21868;SDS011;11099;41.564;23.296;2023-05-20T13:42:37;6.28;;;4.60;;
21868;SDS011;11099;41.564;23.296;2023-05-20T13:45:03;6.55;;;5.30;;
21868;SDS011;11099;41.564;23.296;2023-05-20T13:47:28;6.10;;;4.60;;
21868;SDS011;11099;41.564;23.296;2023-05-20T13:49:54;7.03;;;4.57;;
21868;SDS011;11099;41.564;23.296;2023-05-20T13:52:19;6.68;;;4.32;;
21868;SDS011;11099;41.564;23.296;2023-05-20T13:54:45;7.40;;;5.00;;
21868;SDS011;11099;41.564;23.296;2023-05-20T13:57:12;8.93;;;4.68;;
21868;SDS011;11099;41.564;23.296;2023-05-20T13:59:38;6.90;;;4.97;;
21868;SDS011;11099;41.564;23.296;2023-05-20T14:02:04;7.07;;;4.05;;
21868;SDS011;11099;41.564;23.296;2023-05-20T14:04:29;8.30;;;4.60;;
21868;SDS011;11099;41.564;23.296;2023-05-20T14:06:55;10.68;;;4.72;;
21868;SDS011;11099;41.564;23.296;2023-05-20T14:09:20;4.80;;;4.40;;
21868;SDS011;11099;41.564;23.296;2023-05-20T14:11:46;5.35;;;4.85;;
21868;SDS011;11099;41.564;23.296;2023-05-20T14:14:11;7.90;;;4.50;;
21868;SDS011;11099;41.564;23.296;2023-05-20T14:16:37;8.27;;;4.65;;
21868;SDS011;11099;41.564;23.296;2023-05-20T14:19:03;7.10;;;4.72;;
21868;SDS011;11099;41.564;23.296;2023-05-20T14:21:29;4.95;;;4.43;;
21868;SDS011;11099;41.564;23.296;2023-05-20T14:23:56;6.38;;;4.63;;
21868;SDS011;11099;41.564;23.296;2023-05-20T14:26:23;5.45;;;4.95;;
21868;SDS011;11099;41.564;23.296;2023-05-20T14:28:48;5.30;;;4.80;;
21868;SDS011;11099;41.564;23.296;2023-05-20T14:31:14;8.02;;;5.05;;
21868;SDS011;11099;41.564;23.296;2023-05-20T14:33:40;5.90;;;4.63;;
21868;SDS011;11099;41.564;23.296;2023-05-20T14:36:05;6.97;;;4.45;;
21868;SDS011;11099;41.564;23.296;2023-05-20T14:38:31;9.20;;;4.82;;
21868;SDS011;11099;41.564;23.296;2023-05-20T14:40:56;5.43;;;4.82;;
21868;SDS011;11099;41.564;23.296;2023-05-20T14:43:22;8.40;;;4.95;;
21868;SDS011;11099;41.564;23.296;2023-05-20T14:45:47;4.95;;;4.30;;
21868;SDS011;11099;41.564;23.296;2023-05-20T14:48:13;6.38;;;4.97;;
21868;SDS011;11099;41.564;23.296;2023-05-20T14:50:38;8.07;;;4.45;;
21868;SDS011;11099;41.564;23.296;2023-05-20T14:53:04;8.50;;;4.80;;
21868;SDS011;11099;41.564;23.296;2023-05-20T14:55:30;5.22;;;4.72;;
21868;SDS011;11099;41.564;23.296;2023-05-20T14:57:55;6.07;;;5.43;;
21868;SDS011;11099;41.564;23.296;2023-05-20T15:00:21;6.72;;;5.40;;
21868;SDS011;11099;41.564;23.296;2023-05-20T15:02:46;9.02;;;6.35;;
21868;SDS011;11099;41.564;23.296;2023-05-20T15:05:11;8.43;;;6.95;;
21868;SDS011;11099;41.564;23.296;2023-05-20T15:07:37;8.13;;;6.10;;
21868;SDS011;11099;41.564;23.296;2023-05-20T15:10:03;13.25;;;6.38;;
21868;SDS011;11099;41.564;23.296;2023-05-20T15:12:28;7.55;;;5.32;;
21868;SDS011;11099;41.564;23.296;2023-05-20T15:14:54;6.93;;;5.75;;
21868;SDS011;11099;41.564;23.296;2023-05-20T15:17:19;8.68;;;6.05;;
21868;SDS011;11099;41.564;23.296;2023-05-20T15:19:45;7.25;;;6.55;;